Thirsk, United Kingdom
Current Conditions -  °F | °C
As of 1:50 PM on Wednesday 28 Jan 2015 (Local Time) from EGXZ Reporting Station
Few Clouds Few Clouds  
Wind Chill: 29°   Ceiling: Unl
Heat Index: 39°   Visibility: 6mi
Dew Point: 32°   Wind: 23mph
Humidity: 75%   Direction: 280°W
Pressure: 29.32"   Gusts: 36mph
Location:  54.23°N, 1.34°W
Report Text: EGXZ 281350Z AUTO 28020G31KT 9999 FEW050/// 04/00 Q0993 RERA
Loading
Personal Weather Stations






























Interactive Weather Map New forecast layout! Learn more

10-Day Weather Forecast

Advertisements
Track Severe Weather on mobile